sensor_id;sensor_type;location;lat;lon;timestamp;pressure;altitude;pressure_sealevel;temperature;humidity
33625;BME280;19962;47.820;1.930;2023-05-03T00:01:08;101210.63;;;15.60;68.00
33625;BME280;19962;47.820;1.930;2023-05-03T00:03:35;101197.66;;;15.61;67.88
33625;BME280;19962;47.820;1.930;2023-05-03T00:06:12;101199.56;;;15.60;67.76
33625;BME280;19962;47.820;1.930;2023-05-03T00:08:39;101205.88;;;15.56;67.79
33625;BME280;19962;47.820;1.930;2023-05-03T00:11:05;101212.22;;;15.56;67.98
33625;BME280;19962;47.820;1.930;2023-05-03T00:13:32;101202.25;;;15.55;67.88
33625;BME280;19962;47.820;1.930;2023-05-03T00:15:58;101206.09;;;15.54;67.59
33625;BME280;19962;47.820;1.930;2023-05-03T00:18:24;101205.78;;;15.51;67.97
33625;BME280;19962;47.820;1.930;2023-05-03T00:20:50;101205.25;;;15.54;67.76
33625;BME280;19962;47.820;1.930;2023-05-03T00:23:17;101208.38;;;15.57;67.45
33625;BME280;19962;47.820;1.930;2023-05-03T00:25:43;101199.97;;;15.52;67.75
33625;BME280;19962;47.820;1.930;2023-05-03T00:28:09;101205.31;;;15.42;67.88
33625;BME280;19962;47.820;1.930;2023-05-03T00:30:35;101200.63;;;15.43;68.02
33625;BME280;19962;47.820;1.930;2023-05-03T00:33:01;101203.97;;;15.45;67.70
33625;BME280;19962;47.820;1.930;2023-05-03T00:35:27;101204.63;;;15.35;67.68
33625;BME280;19962;47.820;1.930;2023-05-03T00:37:53;101214.94;;;15.40;67.82
33625;BME280;19962;47.820;1.930;2023-05-03T00:40:20;101204.50;;;15.30;67.80
33625;BME280;19962;47.820;1.930;2023-05-03T00:42:46;101207.00;;;15.32;67.88
33625;BME280;19962;47.820;1.930;2023-05-03T00:45:12;101195.47;;;15.35;67.66
33625;BME280;19962;47.820;1.930;2023-05-03T00:47:38;101195.72;;;15.22;67.82
33625;BME280;19962;47.820;1.930;2023-05-03T00:50:06;101194.91;;;15.21;68.03
33625;BME280;19962;47.820;1.930;2023-05-03T00:52:32;101188.91;;;15.13;67.92
33625;BME280;19962;47.820;1.930;2023-05-03T00:55:00;101200.81;;;15.13;68.16
33625;BME280;19962;47.820;1.930;2023-05-03T00:57:28;101197.06;;;15.19;68.13
33625;BME280;19962;47.820;1.930;2023-05-03T00:59:56;101198.50;;;15.22;67.83
33625;BME280;19962;47.820;1.930;2023-05-03T01:02:23;101195.88;;;15.15;67.57
33625;BME280;19962;47.820;1.930;2023-05-03T01:04:50;101197.59;;;14.93;68.23
33625;BME280;19962;47.820;1.930;2023-05-03T01:12:43;101195.59;;;14.54;69.48
33625;BME280;19962;47.820;1.930;2023-05-03T01:15:43;101190.81;;;14.61;69.62
33625;BME280;19962;47.820;1.930;2023-05-03T01:18:18;101178.75;;;14.79;68.70
33625;BME280;19962;47.820;1.930;2023-05-03T01:20:47;101177.22;;;14.71;68.70
33625;BME280;19962;47.820;1.930;2023-05-03T01:23:28;101174.97;;;14.57;68.68
33625;BME280;19962;47.820;1.930;2023-05-03T01:25:57;101173.16;;;14.62;69.19
33625;BME280;19962;47.820;1.930;2023-05-03T01:28:23;101177.59;;;14.52;69.35
33625;BME280;19962;47.820;1.930;2023-05-03T01:30:51;101176.78;;;14.51;69.48
33625;BME280;19962;47.820;1.930;2023-05-03T01:33:35;101176.53;;;14.41;69.27
33625;BME280;19962;47.820;1.930;2023-05-03T01:36:15;101170.16;;;14.41;69.81
33625;BME280;19962;47.820;1.930;2023-05-03T01:38:44;101177.34;;;14.42;69.88
33625;BME280;19962;47.820;1.930;2023-05-03T01:41:13;101183.63;;;14.49;69.60
33625;BME280;19962;47.820;1.930;2023-05-03T01:43:43;101176.41;;;14.48;69.41
33625;BME280;19962;47.820;1.930;2023-05-03T01:46:10;101176.28;;;14.43;69.33
33625;BME280;19962;47.820;1.930;2023-05-03T01:48:36;101177.59;;;14.29;69.65
33625;BME280;19962;47.820;1.930;2023-05-03T01:51:02;101177.59;;;14.29;69.63
33625;BME280;19962;47.820;1.930;2023-05-03T01:53:28;101176.88;;;14.22;69.85
33625;BME280;19962;47.820;1.930;2023-05-03T01:55:54;101174.59;;;14.30;69.92
33625;BME280;19962;47.820;1.930;2023-05-03T01:58:21;101182.53;;;14.27;70.06
33625;BME280;19962;47.820;1.930;2023-05-03T02:00:47;101192.25;;;14.29;69.51
33625;BME280;19962;47.820;1.930;2023-05-03T02:03:13;101193.22;;;14.23;69.75
33625;BME280;19962;47.820;1.930;2023-05-03T02:05:39;101194.28;;;14.22;69.81
33625;BME280;19962;47.820;1.930;2023-05-03T02:08:06;101194.97;;;14.18;69.86
33625;BME280;19962;47.820;1.930;2023-05-03T02:10:32;101201.06;;;14.20;69.72
33625;BME280;19962;47.820;1.930;2023-05-03T02:12:58;101200.03;;;14.21;69.76
33625;BME280;19962;47.820;1.930;2023-05-03T02:15:25;101203.25;;;14.18;69.20
33625;BME280;19962;47.820;1.930;2023-05-03T02:17:51;101207.56;;;14.14;69.71
33625;BME280;19962;47.820;1.930;2023-05-03T02:20:19;101203.72;;;14.15;69.58
33625;BME280;19962;47.820;1.930;2023-05-03T02:22:45;101205.38;;;14.04;69.59
33625;BME280;19962;47.820;1.930;2023-05-03T02:25:11;101206.25;;;14.16;70.08
33625;BME280;19962;47.820;1.930;2023-05-03T02:27:37;101204.72;;;14.32;69.50
33625;BME280;19962;47.820;1.930;2023-05-03T02:30:03;101197.72;;;14.18;69.06
33625;BME280;19962;47.820;1.930;2023-05-03T02:32:29;101192.72;;;14.26;69.32
33625;BME280;19962;47.820;1.930;2023-05-03T02:34:56;101192.84;;;14.43;69.09
33625;BME280;19962;47.820;1.930;2023-05-03T02:37:22;101193.00;;;14.48;68.59
33625;BME280;19962;47.820;1.930;2023-05-03T02:39:48;101193.81;;;14.48;68.41
33625;BME280;19962;47.820;1.930;2023-05-03T02:42:14;101190.56;;;14.51;67.92
33625;BME280;19962;47.820;1.930;2023-05-03T02:44:41;101187.81;;;14.51;67.92
33625;BME280;19962;47.820;1.930;2023-05-03T02:47:07;101180.22;;;14.47;67.89
33625;BME280;19962;47.820;1.930;2023-05-03T02:49:33;101169.19;;;14.47;68.04
33625;BME280;19962;47.820;1.930;2023-05-03T02:52:00;101177.84;;;14.50;67.88
33625;BME280;19962;47.820;1.930;2023-05-03T02:54:26;101174.25;;;14.38;67.65
33625;BME280;19962;47.820;1.930;2023-05-03T02:56:52;101167.75;;;14.33;68.20
33625;BME280;19962;47.820;1.930;2023-05-03T02:59:18;101165.00;;;14.33;67.93
33625;BME280;19962;47.820;1.930;2023-05-03T03:01:45;101161.41;;;14.32;67.77
33625;BME280;19962;47.820;1.930;2023-05-03T03:04:11;101159.56;;;14.15;68.09
33625;BME280;19962;47.820;1.930;2023-05-03T03:06:37;101160.91;;;14.24;68.25
33625;BME280;19962;47.820;1.930;2023-05-03T03:09:04;101150.22;;;14.39;67.68
33625;BME280;19962;47.820;1.930;2023-05-03T03:11:30;101155.63;;;14.22;67.75
33625;BME280;19962;47.820;1.930;2023-05-03T03:13:56;101157.13;;;13.84;68.67
33625;BME280;19962;47.820;1.930;2023-05-03T03:16:22;101149.81;;;13.89;69.07
33625;BME280;19962;47.820;1.930;2023-05-03T03:18:48;101149.50;;;14.09;68.81
33625;BME280;19962;47.820;1.930;2023-05-03T03:21:14;101145.28;;;14.06;68.04
33625;BME280;19962;47.820;1.930;2023-05-03T03:23:40;101146.19;;;13.77;68.55
33625;BME280;19962;47.820;1.930;2023-05-03T03:26:06;101141.31;;;13.91;68.68
33625;BME280;19962;47.820;1.930;2023-05-03T03:28:33;101140.00;;;14.05;68.24
33625;BME280;19962;47.820;1.930;2023-05-03T03:30:59;101142.75;;;14.05;68.11
33625;BME280;19962;47.820;1.930;2023-05-03T03:33:25;101140.00;;;13.93;68.40
33625;BME280;19962;47.820;1.930;2023-05-03T03:35:51;101137.00;;;13.95;68.24
33625;BME280;19962;47.820;1.930;2023-05-03T03:38:17;101132.91;;;13.86;68.56
33625;BME280;19962;47.820;1.930;2023-05-03T03:40:44;101127.19;;;13.99;67.91
33625;BME280;19962;47.820;1.930;2023-05-03T03:43:10;101122.94;;;13.85;68.37
33625;BME280;19962;47.820;1.930;2023-05-03T03:45:36;101119.25;;;14.02;68.23
33625;BME280;19962;47.820;1.930;2023-05-03T03:48:02;101127.41;;;14.09;67.58
33625;BME280;19962;47.820;1.930;2023-05-03T03:50:28;101125.47;;;13.98;67.62
33625;BME280;19962;47.820;1.930;2023-05-03T03:52:54;101126.88;;;13.66;68.03
33625;BME280;19962;47.820;1.930;2023-05-03T03:55:20;101129.72;;;13.59;68.81
33625;BME280;19962;47.820;1.930;2023-05-03T03:57:46;101129.75;;;13.71;68.85
33625;BME280;19962;47.820;1.930;2023-05-03T04:00:13;101126.44;;;13.92;67.99
33625;BME280;19962;47.820;1.930;2023-05-03T04:02:39;101120.91;;;13.92;67.53
33625;BME280;19962;47.820;1.930;2023-05-03T04:05:05;101129.66;;;13.89;67.43
33625;BME280;19962;47.820;1.930;2023-05-03T04:07:32;101128.84;;;13.88;67.40
33625;BME280;19962;47.820;1.930;2023-05-03T04:09:59;101124.88;;;13.84;67.48
33625;BME280;19962;47.820;1.930;2023-05-03T04:12:25;101118.50;;;13.84;67.39
33625;BME280;19962;47.820;1.930;2023-05-03T04:14:51;101129.53;;;13.72;67.47
33625;BME280;19962;47.820;1.930;2023-05-03T04:17:17;101123.25;;;13.65;67.46
33625;BME280;19962;47.820;1.930;2023-05-03T04:19:43;101117.03;;;13.70;67.44
33625;BME280;19962;47.820;1.930;2023-05-03T04:22:09;101117.16;;;13.75;67.37
33625;BME280;19962;47.820;1.930;2023-05-03T04:24:36;101124.47;;;13.81;66.94
33625;BME280;19962;47.820;1.930;2023-05-03T04:27:04;101121.47;;;13.59;67.50
33625;BME280;19962;47.820;1.930;2023-05-03T04:29:30;101123.66;;;13.69;67.62
33625;BME280;19962;47.820;1.930;2023-05-03T04:31:56;101130.25;;;13.68;67.47
33625;BME280;19962;47.820;1.930;2023-05-03T04:34:23;101127.69;;;13.55;67.52
33625;BME280;19962;47.820;1.930;2023-05-03T04:36:49;101124.84;;;13.61;67.76
33625;BME280;19962;47.820;1.930;2023-05-03T04:39:15;101120.41;;;13.72;67.64
33625;BME280;19962;47.820;1.930;2023-05-03T04:41:41;101113.53;;;13.63;67.35
33625;BME280;19962;47.820;1.930;2023-05-03T04:44:08;101121.00;;;13.62;67.37
33625;BME280;19962;47.820;1.930;2023-05-03T04:46:34;101116.31;;;13.63;67.42
33625;BME280;19962;47.820;1.930;2023-05-03T04:49:00;101114.28;;;13.58;66.88
33625;BME280;19962;47.820;1.930;2023-05-03T04:51:26;101115.47;;;13.62;66.86
33625;BME280;19962;47.820;1.930;2023-05-03T04:53:53;101113.63;;;13.45;67.30
33625;BME280;19962;47.820;1.930;2023-05-03T04:56:20;101111.00;;;13.50;67.52
33625;BME280;19962;47.820;1.930;2023-05-03T04:58:51;101107.53;;;13.54;67.01
33625;BME280;19962;47.820;1.930;2023-05-03T05:01:18;101118.88;;;13.35;67.54
33625;BME280;19962;47.820;1.930;2023-05-03T05:03:44;101116.50;;;13.50;67.58
33625;BME280;19962;47.820;1.930;2023-05-03T05:06:10;101114.16;;;13.65;67.28
33625;BME280;19962;47.820;1.930;2023-05-03T05:08:37;101118.03;;;13.87;66.97
33625;BME280;19962;47.820;1.930;2023-05-03T05:11:03;101115.63;;;13.79;66.64
33625;BME280;19962;47.820;1.930;2023-05-03T05:13:30;101120.13;;;13.62;66.81
33625;BME280;19962;47.820;1.930;2023-05-03T05:15:56;101130.38;;;13.73;66.67
33625;BME280;19962;47.820;1.930;2023-05-03T05:18:22;101130.59;;;13.60;66.73
33625;BME280;19962;47.820;1.930;2023-05-03T05:20:48;101122.47;;;13.76;66.69
33625;BME280;19962;47.820;1.930;2023-05-03T05:23:14;101121.97;;;13.68;66.50
33625;BME280;19962;47.820;1.930;2023-05-03T05:25:41;101123.53;;;13.64;66.85
33625;BME280;19962;47.820;1.930;2023-05-03T05:28:08;101119.53;;;13.48;66.91
33625;BME280;19962;47.820;1.930;2023-05-03T05:30:34;101119.84;;;13.40;67.15
33625;BME280;19962;47.820;1.930;2023-05-03T05:33:00;101128.16;;;13.52;67.26
33625;BME280;19962;47.820;1.930;2023-05-03T05:35:26;101128.75;;;13.54;66.73
33625;BME280;19962;47.820;1.930;2023-05-03T05:37:53;101144.56;;;13.17;67.73
33625;BME280;19962;47.820;1.930;2023-05-03T05:40:19;101136.34;;;13.29;67.78
33625;BME280;19962;47.820;1.930;2023-05-03T05:42:46;101142.88;;;13.46;67.49
33625;BME280;19962;47.820;1.930;2023-05-03T05:45:13;101140.41;;;13.67;67.26
33625;BME280;19962;47.820;1.930;2023-05-03T05:47:39;101132.91;;;13.86;66.69
33625;BME280;19962;47.820;1.930;2023-05-03T05:50:06;101138.69;;;13.96;66.16
33625;BME280;19962;47.820;1.930;2023-05-03T05:52:32;101131.94;;;13.92;65.83
33625;BME280;19962;47.820;1.930;2023-05-03T05:54:58;101135.41;;;13.87;65.81
33625;BME280;19962;47.820;1.930;2023-05-03T05:57:24;101136.06;;;13.48;66.70
33625;BME280;19962;47.820;1.930;2023-05-03T05:59:50;101145.28;;;13.54;66.79
33625;BME280;19962;47.820;1.930;2023-05-03T06:02:17;101146.69;;;13.74;66.71
33625;BME280;19962;47.820;1.930;2023-05-03T06:04:45;101134.25;;;13.95;66.33
33625;BME280;19962;47.820;1.930;2023-05-03T06:07:11;101121.50;;;13.94;66.09
33625;BME280;19962;47.820;1.930;2023-05-03T06:09:37;101131.31;;;13.78;66.31
33625;BME280;19962;47.820;1.930;2023-05-03T06:12:03;101138.09;;;13.53;67.07
33625;BME280;19962;47.820;1.930;2023-05-03T06:14:30;101138.66;;;13.73;66.59
33625;BME280;19962;47.820;1.930;2023-05-03T06:16:56;101134.06;;;13.67;66.90
33625;BME280;19962;47.820;1.930;2023-05-03T06:19:23;101138.91;;;13.42;67.30
33625;BME280;19962;47.820;1.930;2023-05-03T06:21:49;101131.38;;;13.49;66.93
33625;BME280;19962;47.820;1.930;2023-05-03T06:24:16;101128.50;;;13.55;67.23
33625;BME280;19962;47.820;1.930;2023-05-03T06:26:46;101138.28;;;13.40;67.42
33625;BME280;19962;47.820;1.930;2023-05-03T06:29:13;101131.38;;;13.49;67.62
33625;BME280;19962;47.820;1.930;2023-05-03T06:31:46;101131.69;;;13.41;67.78
33625;BME280;19962;47.820;1.930;2023-05-03T06:34:12;101129.03;;;13.64;67.68
33625;BME280;19962;47.820;1.930;2023-05-03T06:36:38;101129.66;;;13.77;67.11
33625;BME280;19962;47.820;1.930;2023-05-03T06:39:04;101125.56;;;13.80;67.06
33625;BME280;19962;47.820;1.930;2023-05-03T06:41:31;101126.91;;;13.89;67.22
33625;BME280;19962;47.820;1.930;2023-05-03T06:44:00;101126.56;;;13.97;66.92
33625;BME280;19962;47.820;1.930;2023-05-03T06:46:27;101117.94;;;14.05;66.46
33625;BME280;19962;47.820;1.930;2023-05-03T06:48:53;101122.25;;;14.12;66.14
33625;BME280;19962;47.820;1.930;2023-05-03T06:51:22;101123.69;;;14.03;66.67
33625;BME280;19962;47.820;1.930;2023-05-03T06:53:53;101126.66;;;13.79;67.39
33625;BME280;19962;47.820;1.930;2023-05-03T06:56:21;101120.19;;;13.85;67.59
33625;BME280;19962;47.820;1.930;2023-05-03T06:58:48;101122.94;;;13.96;67.28
33625;BME280;19962;47.820;1.930;2023-05-03T07:01:14;101119.50;;;14.12;67.11
33625;BME280;19962;47.820;1.930;2023-05-03T07:03:40;101118.94;;;14.22;66.97
33625;BME280;19962;47.820;1.930;2023-05-03T07:06:07;101123.72;;;14.26;66.71
33625;BME280;19962;47.820;1.930;2023-05-03T07:08:33;101125.03;;;14.24;66.56
33625;BME280;19962;47.820;1.930;2023-05-03T07:10:59;101119.03;;;14.27;66.74
33625;BME280;19962;47.820;1.930;2023-05-03T07:13:25;101115.06;;;14.34;66.57
33625;BME280;19962;47.820;1.930;2023-05-03T07:15:51;101117.25;;;14.44;66.40
33625;BME280;19962;47.820;1.930;2023-05-03T07:18:17;101110.78;;;14.27;66.82
33625;BME280;19962;47.820;1.930;2023-05-03T07:20:43;101121.69;;;14.22;66.97
33625;BME280;19962;47.820;1.930;2023-05-03T07:23:09;101108.81;;;14.39;66.73
33625;BME280;19962;47.820;1.930;2023-05-03T07:25:35;101107.13;;;14.49;66.59
33625;BME280;19962;47.820;1.930;2023-05-03T07:28:04;101108.69;;;14.57;66.74
33625;BME280;19962;47.820;1.930;2023-05-03T07:30:30;101106.31;;;14.49;66.97
33625;BME280;19962;47.820;1.930;2023-05-03T07:32:56;101105.53;;;14.65;66.63
33625;BME280;19962;47.820;1.930;2023-05-03T07:35:22;101100.34;;;14.80;66.02
33625;BME280;19962;47.820;1.930;2023-05-03T07:37:48;101098.66;;;14.90;66.19
33625;BME280;19962;47.820;1.930;2023-05-03T07:40:14;101103.50;;;15.00;65.87
33625;BME280;19962;47.820;1.930;2023-05-03T07:42:40;101096.19;;;15.05;65.84
33625;BME280;19962;47.820;1.930;2023-05-03T07:45:07;101085.13;;;15.05;65.63
33625;BME280;19962;47.820;1.930;2023-05-03T07:47:33;101088.75;;;15.06;65.36
33625;BME280;19962;47.820;1.930;2023-05-03T07:50:03;101091.75;;;15.04;65.58
33625;BME280;19962;47.820;1.930;2023-05-03T07:52:37;101085.38;;;15.04;65.60
33625;BME280;19962;47.820;1.930;2023-05-03T07:55:04;101098.28;;;14.87;66.05
33625;BME280;19962;47.820;1.930;2023-05-03T07:57:30;101087.94;;;14.94;65.81
33625;BME280;19962;47.820;1.930;2023-05-03T07:59:56;101087.97;;;15.10;65.32
33625;BME280;19962;47.820;1.930;2023-05-03T08:02:22;101080.47;;;15.22;64.98
33625;BME280;19962;47.820;1.930;2023-05-03T08:04:49;101085.34;;;15.32;64.84
33625;BME280;19962;47.820;1.930;2023-05-03T08:07:15;101085.16;;;15.22;65.09
33625;BME280;19962;47.820;1.930;2023-05-03T08:09:42;101080.47;;;15.22;65.04
33625;BME280;19962;47.820;1.930;2023-05-03T08:12:08;101071.66;;;15.37;64.74
33625;BME280;19962;47.820;1.930;2023-05-03T08:14:34;101073.75;;;15.46;64.47
33625;BME280;19962;47.820;1.930;2023-05-03T08:17:02;101071.69;;;15.53;64.16
33625;BME280;19962;47.820;1.930;2023-05-03T08:19:29;101062.13;;;15.61;64.22
33625;BME280;19962;47.820;1.930;2023-05-03T08:21:55;101055.91;;;15.54;64.08
33625;BME280;19962;47.820;1.930;2023-05-03T08:24:23;101053.16;;;15.54;64.62
33625;BME280;19962;47.820;1.930;2023-05-03T08:26:50;101061.88;;;15.62;64.32
33625;BME280;19962;47.820;1.930;2023-05-03T08:29:16;101052.41;;;15.75;63.95
33625;BME280;19962;47.820;1.930;2023-05-03T08:31:42;101060.84;;;15.85;63.70
33625;BME280;19962;47.820;1.930;2023-05-03T08:34:08;101045.69;;;15.87;63.89
33625;BME280;19962;47.820;1.930;2023-05-03T08:36:36;101047.78;;;15.97;63.72
33625;BME280;19962;47.820;1.930;2023-05-03T08:39:03;101036.72;;;15.97;63.66
33625;BME280;19962;47.820;1.930;2023-05-03T08:41:33;101039.88;;;16.05;63.37
33625;BME280;19962;47.820;1.930;2023-05-03T08:44:00;101034.44;;;16.10;63.49
33625;BME280;19962;47.820;1.930;2023-05-03T08:46:27;101031.47;;;16.17;63.40
33625;BME280;19962;47.820;1.930;2023-05-03T08:48:54;101029.22;;;16.14;63.63
33625;BME280;19962;47.820;1.930;2023-05-03T08:51:21;101025.41;;;16.20;62.96
33625;BME280;19962;47.820;1.930;2023-05-03T08:53:48;101026.91;;;16.27;62.87
33625;BME280;19962;47.820;1.930;2023-05-03T08:56:40;101025.75;;;16.40;62.78
33625;BME280;19962;47.820;1.930;2023-05-03T08:59:06;101021.44;;;16.49;62.85
33625;BME280;19962;47.820;1.930;2023-05-03T09:01:40;101013.50;;;16.57;63.34
33625;BME280;19962;47.820;1.930;2023-05-03T09:04:08;101025.16;;;16.59;63.07
33625;BME280;19962;47.820;1.930;2023-05-03T09:06:34;101026.00;;;16.60;63.09
33625;BME280;19962;47.820;1.930;2023-05-03T09:09:05;101011.09;;;16.66;62.73
33625;BME280;19962;47.820;1.930;2023-05-03T09:11:36;101012.00;;;16.71;62.91
33625;BME280;19962;47.820;1.930;2023-05-03T09:14:17;101012.59;;;16.73;62.58
33625;BME280;19962;47.820;1.930;2023-05-03T09:16:44;101004.13;;;16.85;62.52
33625;BME280;19962;47.820;1.930;2023-05-03T09:19:13;101006.94;;;16.90;62.54
33625;BME280;19962;47.820;1.930;2023-05-03T09:21:41;100997.88;;;16.99;62.27
33625;BME280;19962;47.820;1.930;2023-05-03T09:24:18;100993.84;;;17.07;61.96
33625;BME280;19962;47.820;1.930;2023-05-03T09:26:46;100997.75;;;17.11;61.64
33625;BME280;19962;47.820;1.930;2023-05-03T09:29:28;100998.00;;;17.09;60.98
33625;BME280;19962;47.820;1.930;2023-05-03T09:32:02;100981.44;;;17.14;61.31
33625;BME280;19962;47.820;1.930;2023-05-03T09:34:33;100986.75;;;17.21;61.22
33625;BME280;19962;47.820;1.930;2023-05-03T09:37:00;100982.91;;;17.27;60.85
33625;BME280;19962;47.820;1.930;2023-05-03T09:39:26;100991.88;;;17.34;60.63
33625;BME280;19962;47.820;1.930;2023-05-03T09:41:53;100989.75;;;17.46;60.55
33625;BME280;19962;47.820;1.930;2023-05-03T09:44:19;100985.97;;;17.52;60.56
33625;BME280;19962;47.820;1.930;2023-05-03T09:47:05;100982.09;;;17.58;59.73
33625;BME280;19962;47.820;1.930;2023-05-03T09:49:31;100984.69;;;17.70;59.22
33625;BME280;19962;47.820;1.930;2023-05-03T09:51:59;100987.78;;;17.73;58.05
33625;BME280;19962;47.820;1.930;2023-05-03T09:54:26;100980.03;;;17.75;58.03
33625;BME280;19962;47.820;1.930;2023-05-03T09:56:54;100973.97;;;17.83;58.41
33625;BME280;19962;47.820;1.930;2023-05-03T09:59:20;100981.81;;;17.91;57.63
33625;BME280;19962;47.820;1.930;2023-05-03T10:01:47;100975.69;;;17.94;57.57
33625;BME280;19962;47.820;1.930;2023-05-03T10:04:17;100979.31;;;17.95;56.99
33625;BME280;19962;47.820;1.930;2023-05-03T10:06:47;100971.28;;;17.98;57.10
33625;BME280;19962;47.820;1.930;2023-05-03T10:09:30;100977.97;;;18.02;56.24
33625;BME280;19962;47.820;1.930;2023-05-03T10:12:00;100978.59;;;18.14;56.62
33625;BME280;19962;47.820;1.930;2023-05-03T10:14:29;100964.47;;;18.16;56.51
33625;BME280;19962;47.820;1.930;2023-05-03T10:17:00;100965.28;;;18.21;56.15
33625;BME280;19962;47.820;1.930;2023-05-03T10:19:28;100970.59;;;18.28;56.16
33625;BME280;19962;47.820;1.930;2023-05-03T10:22:09;100969.78;;;18.27;55.26
33625;BME280;19962;47.820;1.930;2023-05-03T10:30:26;100956.03;;;18.57;56.00
33625;BME280;19962;47.820;1.930;2023-05-03T10:32:53;100951.63;;;18.66;55.55
33625;BME280;19962;47.820;1.930;2023-05-03T10:35:20;100953.84;;;18.59;54.87
33625;BME280;19962;47.820;1.930;2023-05-03T10:37:48;100956.88;;;18.58;54.69
33625;BME280;19962;47.820;1.930;2023-05-03T10:40:16;100936.59;;;18.62;54.95
33625;BME280;19962;47.820;1.930;2023-05-03T10:42:45;100944.38;;;18.65;54.71
33625;BME280;19962;47.820;1.930;2023-05-03T10:45:27;100931.63;;;18.74;55.81
33625;BME280;19962;47.820;1.930;2023-05-03T10:50:38;100931.09;;;18.97;55.20
33625;BME280;19962;47.820;1.930;2023-05-03T10:53:05;100930.03;;;18.98;54.12
33625;BME280;19962;47.820;1.930;2023-05-03T10:55:31;100907.19;;;18.96;53.86
33625;BME280;19962;47.820;1.930;2023-05-03T10:57:59;100910.81;;;18.97;53.78
33625;BME280;19962;47.820;1.930;2023-05-03T11:05:42;100908.03;;;19.02;52.76
33625;BME280;19962;47.820;1.930;2023-05-03T11:10:34;100903.34;;;19.07;52.74
33625;BME280;19962;47.820;1.930;2023-05-03T11:13:00;100889.97;;;19.14;53.12
33625;BME280;19962;47.820;1.930;2023-05-03T11:15:27;100890.22;;;19.18;52.57
33625;BME280;19962;47.820;1.930;2023-05-03T11:17:53;100885.25;;;19.20;52.42
33625;BME280;19962;47.820;1.930;2023-05-03T11:20:19;100885.00;;;19.26;52.75
33625;BME280;19962;47.820;1.930;2023-05-03T11:22:46;100872.22;;;19.25;52.16
33625;BME280;19962;47.820;1.930;2023-05-03T11:25:12;100874.13;;;19.30;51.89
33625;BME280;19962;47.820;1.930;2023-05-03T11:27:43;100868.84;;;19.33;51.54
33625;BME280;19962;47.820;1.930;2023-05-03T11:30:09;100863.00;;;19.40;51.44
33625;BME280;19962;47.820;1.930;2023-05-03T11:32:36;100864.09;;;19.39;51.65
33625;BME280;19962;47.820;1.930;2023-05-03T11:35:02;100860.50;;;19.43;51.37
33625;BME280;19962;47.820;1.930;2023-05-03T11:37:31;100861.31;;;19.59;50.66
33625;BME280;19962;47.820;1.930;2023-05-03T11:39:57;100847.94;;;19.61;50.67
33625;BME280;19962;47.820;1.930;2023-05-03T11:42:23;100853.50;;;19.61;50.17
33625;BME280;19962;47.820;1.930;2023-05-03T11:44:51;100837.63;;;19.61;50.34
33625;BME280;19962;47.820;1.930;2023-05-03T11:47:18;100840.16;;;19.63;50.23
33625;BME280;19962;47.820;1.930;2023-05-03T11:49:52;100836.50;;;19.67;50.17
33625;BME280;19962;47.820;1.930;2023-05-03T11:52:25;100840.13;;;19.68;50.32
33625;BME280;19962;47.820;1.930;2023-05-03T11:54:52;100833.72;;;19.67;50.53
33625;BME280;19962;47.820;1.930;2023-05-03T11:57:19;100827.88;;;19.69;50.57
33625;BME280;19962;47.820;1.930;2023-05-03T11:59:46;100818.09;;;19.76;50.12
33625;BME280;19962;47.820;1.930;2023-05-03T12:02:15;100818.66;;;19.73;49.84
33625;BME280;19962;47.820;1.930;2023-05-03T12:04:42;100809.47;;;19.78;50.01
33625;BME280;19962;47.820;1.930;2023-05-03T12:07:11;100808.59;;;19.87;49.90
33625;BME280;19962;47.820;1.930;2023-05-03T12:09:39;100805.78;;;19.92;49.82
33625;BME280;19962;47.820;1.930;2023-05-03T12:12:05;100809.34;;;19.98;50.10
33625;BME280;19962;47.820;1.930;2023-05-03T12:14:54;100800.69;;;20.04;49.55
33625;BME280;19962;47.820;1.930;2023-05-03T12:17:37;100791.25;;;20.10;49.31
33625;BME280;19962;47.820;1.930;2023-05-03T12:20:21;100796.22;;;20.13;49.59
33625;BME280;19962;47.820;1.930;2023-05-03T12:22:55;100787.22;;;20.26;49.64
33625;BME280;19962;47.820;1.930;2023-05-03T12:25:22;100780.47;;;20.37;49.33
33625;BME280;19962;47.820;1.930;2023-05-03T12:27:48;100786.03;;;20.42;49.46
33625;BME280;19962;47.820;1.930;2023-05-03T12:30:14;100783.78;;;20.39;49.02
33625;BME280;19962;47.820;1.930;2023-05-03T12:32:40;100787.16;;;20.41;48.79
33625;BME280;19962;47.820;1.930;2023-05-03T12:35:07;100782.66;;;20.40;48.59
33625;BME280;19962;47.820;1.930;2023-05-03T12:37:34;100777.41;;;20.39;48.90
33625;BME280;19962;47.820;1.930;2023-05-03T12:40:01;100771.56;;;20.35;48.90
33625;BME280;19962;47.820;1.930;2023-05-03T12:42:28;100773.25;;;20.36;48.86
33625;BME280;19962;47.820;1.930;2023-05-03T12:44:58;100768.75;;;20.40;48.31
33625;BME280;19962;47.820;1.930;2023-05-03T12:47:24;100760.38;;;20.45;48.30
33625;BME280;19962;47.820;1.930;2023-05-03T12:49:51;100760.09;;;20.42;48.00
33625;BME280;19962;47.820;1.930;2023-05-03T12:52:18;100749.81;;;20.37;47.94
33625;BME280;19962;47.820;1.930;2023-05-03T12:54:44;100750.34;;;20.39;47.87
33625;BME280;19962;47.820;1.930;2023-05-03T12:57:11;100735.47;;;20.54;48.05
33625;BME280;19962;47.820;1.930;2023-05-03T12:59:39;100736.81;;;20.61;47.61
33625;BME280;19962;47.820;1.930;2023-05-03T13:02:07;100727.59;;;20.66;47.06
33625;BME280;19962;47.820;1.930;2023-05-03T13:04:33;100730.09;;;20.62;47.02
33625;BME280;19962;47.820;1.930;2023-05-03T13:07:00;100726.78;;;20.60;47.08
33625;BME280;19962;47.820;1.930;2023-05-03T13:09:28;100724.25;;;20.64;46.94
33625;BME280;19962;47.820;1.930;2023-05-03T13:11:54;100735.38;;;20.64;46.88
33625;BME280;19962;47.820;1.930;2023-05-03T13:14:20;100734.72;;;20.77;47.01